createdAt,value
2018-12-21T17:45:57.406Z,96087.58
2018-12-21T17:48:26.410Z,96092.97
2018-12-21T17:50:55.423Z,96087.43
2018-12-21T17:53:24.554Z,96083.25
2018-12-21T17:55:53.629Z,96092.92
2018-12-21T18:22:17.002Z,96110.76
2018-12-21T18:24:51.094Z,96117.95
2018-12-21T18:27:20.213Z,96112.22
2018-12-21T18:29:51.459Z,96120.55
2018-12-21T18:32:30.660Z,96116.95
2018-12-21T18:35:04.096Z,96109.20
2018-12-21T18:37:38.641Z,96101.70
2018-12-21T18:40:09.247Z,96101.14
2018-12-21T18:42:38.656Z,96096.59
2018-12-21T18:45:07.951Z,96076.14
2018-12-21T18:47:38.248Z,96079.52
2018-12-21T18:50:07.545Z,96076.47
2018-12-21T18:52:36.799Z,96086.27
2018-12-21T18:55:09.836Z,96084.23
2018-12-21T18:57:38.973Z,96082.13
2018-12-21T19:00:11.631Z,96086.28
2018-12-21T19:02:43.046Z,96064.77
2018-12-21T19:05:12.203Z,96069.00
2018-12-21T19:07:41.364Z,96055.64
2018-12-21T19:10:11.895Z,96071.80
2018-12-21T19:12:41.009Z,96070.77
2018-12-21T19:15:11.430Z,96065.26
2018-12-21T19:17:40.658Z,96060.10
2018-12-21T19:20:11.951Z,96068.42
2018-12-21T19:22:41.230Z,96062.25
2018-12-21T19:25:11.473Z,96071.86
2018-12-21T19:27:40.589Z,96072.92
2018-12-21T19:30:11.434Z,96068.58
2018-12-21T19:32:41.753Z,96066.59
2018-12-21T19:35:12.285Z,96057.11
2018-12-21T19:37:41.662Z,96052.83
2018-12-21T19:40:11.830Z,96060.30
2018-12-21T19:42:41.397Z,96061.09
2018-12-21T19:45:12.641Z,96045.34
2018-12-21T19:47:41.769Z,96043.19
2018-12-21T19:50:11.376Z,96034.50
2018-12-21T19:52:40.432Z,96049.80
2018-12-21T19:55:20.579Z,96045.36
2018-12-21T19:57:49.623Z,96050.48
2018-12-21T20:00:18.773Z,96046.52
2018-12-21T20:02:48.151Z,96045.48
2018-12-21T20:05:17.289Z,96044.59
2018-12-21T20:07:46.459Z,96045.80
2018-12-21T20:10:15.530Z,96047.17
2018-12-21T20:12:44.590Z,96043.42
2018-12-21T20:15:13.784Z,96039.63
2018-12-21T20:17:44.010Z,96038.50
2018-12-21T20:20:13.277Z,96038.69
2018-12-21T20:22:42.346Z,96030.77
2018-12-21T20:25:13.190Z,96025.11
2018-12-21T20:27:43.859Z,96039.14
2018-12-21T20:30:16.613Z,96039.91
2018-12-21T20:32:45.844Z,96033.91
2018-12-21T20:35:15.059Z,96044.20
2018-12-21T20:37:44.229Z,96041.42
2018-12-21T20:40:13.480Z,96056.91
2018-12-21T20:42:42.526Z,96050.52
2018-12-21T20:45:12.593Z,96057.55
2018-12-21T20:47:41.685Z,96062.45
2018-12-21T20:50:14.762Z,96068.26
2018-12-21T20:52:43.947Z,96072.85
2018-12-21T20:55:13.178Z,96070.89
2018-12-21T20:57:44.049Z,96069.01
2018-12-21T21:00:15.159Z,96067.30
2018-12-21T21:02:44.349Z,96094.11
2018-12-21T21:05:13.399Z,96092.69
2018-12-21T21:07:42.540Z,96107.53
2018-12-21T21:10:12.754Z,96096.48
2018-12-21T21:12:42.269Z,96096.86
2018-12-21T21:15:13.059Z,96109.69
2018-12-21T21:17:42.062Z,96119.25
2018-12-21T21:20:14.284Z,96117.30
2018-12-21T21:22:43.550Z,96125.72
2018-12-21T21:25:12.596Z,96129.24
2018-12-21T21:27:41.784Z,96135.76
2018-12-21T21:30:16.633Z,96128.13
2018-12-21T21:32:46.261Z,96133.66
2018-12-21T21:35:15.492Z,96138.28
2018-12-21T21:37:44.827Z,96138.15
2018-12-21T21:40:16.953Z,96132.48
2018-12-21T21:42:47.403Z,96139.13
2018-12-21T21:45:16.856Z,96145.80
2018-12-21T21:47:47.088Z,96153.02
2018-12-21T21:50:16.270Z,96132.44
2018-12-21T21:52:45.587Z,96148.01
2018-12-21T21:55:15.793Z,96140.57
2018-12-21T21:57:44.888Z,96133.53
2018-12-21T22:00:14.686Z,96133.21
2018-12-21T22:02:44.278Z,96141.22
2018-12-21T22:05:13.358Z,96134.27
2018-12-21T22:07:42.501Z,96137.18
2018-12-21T22:10:11.808Z,96143.82
2018-12-21T22:12:41.015Z,96132.83
2018-12-21T22:15:10.949Z,96146.09
2018-12-21T22:17:40.154Z,96146.89
2018-12-21T22:20:11.656Z,96149.89
2018-12-21T22:22:40.868Z,96154.70
2018-12-21T22:25:10.118Z,96151.72
2018-12-21T22:27:47.747Z,96152.09
2018-12-21T22:30:11.823Z,96156.45
2018-12-21T22:32:41.094Z,96165.58
2018-12-21T22:35:11.349Z,96162.73
2018-12-21T22:37:40.685Z,96166.52
2018-12-21T22:40:09.832Z,96168.26
2018-12-21T22:42:39.106Z,96170.80
2018-12-21T22:45:08.553Z,96172.83
2018-12-21T22:47:37.834Z,96172.83
2018-12-21T22:50:09.405Z,96185.48
2018-12-21T22:52:38.574Z,96181.03
2018-12-21T22:55:09.047Z,96187.56
2018-12-21T22:57:38.225Z,96184.97
2018-12-21T23:00:16.575Z,96186.84
2018-12-21T23:02:46.236Z,96194.73
2018-12-21T23:05:15.504Z,96186.19
2018-12-21T23:07:44.659Z,96188.20
2018-12-21T23:10:14.065Z,96188.16
2018-12-21T23:12:43.246Z,96198.77
2018-12-21T23:15:12.578Z,96203.91
2018-12-21T23:17:42.185Z,96188.86
2018-12-21T23:20:11.309Z,96202.61
2018-12-21T23:22:40.441Z,96196.94
2018-12-21T23:25:09.874Z,96181.75
2018-12-21T23:27:39.031Z,96185.72
2018-12-21T23:30:10.364Z,96185.44
2018-12-21T23:32:39.664Z,96188.33
2018-12-21T23:35:08.985Z,96188.27
2018-12-21T23:37:38.281Z,96187.22
2018-12-21T23:40:08.514Z,96179.91
2018-12-21T23:42:37.795Z,96185.77
2018-12-21T23:45:07.656Z,96178.98
2018-12-21T23:47:36.749Z,96179.03
2018-12-21T23:50:06.697Z,96187.02
2018-12-21T23:52:35.869Z,96186.52
2018-12-21T23:55:06.438Z,96194.52
2018-12-21T23:57:35.667Z,96197.45
